createdAt,value
2018-12-19T00:01:09.456Z,1.50
2018-12-19T00:03:36.940Z,2.00
2018-12-19T00:06:04.403Z,2.10
2018-12-19T00:08:31.890Z,1.77
2018-12-19T00:13:33.115Z,1.80
2018-12-19T00:16:00.579Z,2.30
2018-12-19T00:18:28.533Z,1.87
2018-12-19T00:20:56.007Z,2.00
2018-12-19T00:23:23.470Z,1.93
2018-12-19T00:25:50.943Z,2.10
2018-12-19T00:28:18.395Z,1.97
2018-12-19T00:30:45.872Z,1.90
2018-12-19T00:33:13.335Z,1.70
2018-12-19T00:35:40.812Z,1.60
2018-12-19T00:38:08.271Z,2.10
2018-12-19T00:40:35.757Z,1.87
2018-12-19T00:43:03.287Z,1.77
2018-12-19T00:45:30.782Z,1.63
2018-12-19T00:47:58.234Z,1.70
2018-12-19T00:50:25.728Z,1.73
2018-12-19T00:52:53.184Z,2.17
2018-12-19T00:55:20.647Z,1.90
2018-12-19T00:57:48.135Z,1.60
2018-12-19T01:00:15.603Z,1.50
2018-12-19T01:02:43.085Z,2.13
2018-12-19T01:05:10.542Z,2.00
2018-12-19T01:07:38.022Z,1.67
2018-12-19T01:10:05.830Z,2.20
2018-12-19T01:12:33.321Z,1.73
2018-12-19T01:15:00.779Z,2.10
2018-12-19T01:17:28.560Z,2.30
2018-12-19T01:19:56.020Z,2.20
2018-12-19T01:22:23.508Z,2.30
2018-12-19T01:24:50.977Z,1.70
2018-12-19T01:27:18.471Z,2.27
2018-12-19T01:29:45.939Z,2.07
2018-12-19T01:32:13.403Z,1.93
2018-12-19T01:34:40.906Z,2.53
2018-12-19T01:37:08.387Z,2.30
2018-12-19T01:39:35.869Z,2.40
2018-12-19T01:42:03.363Z,2.27
2018-12-19T01:44:30.857Z,2.20
2018-12-19T01:46:58.348Z,2.03
2018-12-19T01:49:25.840Z,1.87
2018-12-19T01:51:53.307Z,2.13
2018-12-19T01:54:20.794Z,2.40
2018-12-19T01:56:48.247Z,2.03
2018-12-19T01:59:15.739Z,2.07
2018-12-19T02:01:43.237Z,2.10
2018-12-19T02:04:10.721Z,2.30
2018-12-19T02:06:38.430Z,2.30
2018-12-19T02:09:06.344Z,1.97
2018-12-19T02:11:33.832Z,2.10
2018-12-19T02:14:01.291Z,2.00
2018-12-19T02:16:28.847Z,2.30
2018-12-19T02:18:56.337Z,2.10
2018-12-19T02:21:23.809Z,2.00
2018-12-19T02:23:51.281Z,2.23
2018-12-19T02:26:18.766Z,2.20
2018-12-19T02:28:46.245Z,1.93
2018-12-19T02:31:13.725Z,2.03
2018-12-19T02:33:41.228Z,1.90
2018-12-19T02:36:08.707Z,2.70
2018-12-19T02:38:36.215Z,2.10
2018-12-19T02:41:03.703Z,2.27
2018-12-19T02:43:31.196Z,2.13
2018-12-19T02:45:58.664Z,2.37
2018-12-19T02:48:26.154Z,2.20
2018-12-19T02:50:53.651Z,2.17
2018-12-19T02:53:21.128Z,2.73
2018-12-19T02:55:48.591Z,2.03
2018-12-19T02:58:16.076Z,2.30
2018-12-19T03:00:43.563Z,2.10
2018-12-19T03:03:11.037Z,2.23
2018-12-19T03:05:38.502Z,2.50
2018-12-19T03:08:05.984Z,2.30
2018-12-19T03:10:33.448Z,1.70
2018-12-19T03:13:00.920Z,2.53
2018-12-19T03:15:28.383Z,2.30
2018-12-19T03:17:55.868Z,2.30
2018-12-19T03:20:23.332Z,1.80
2018-12-19T03:22:50.791Z,2.10
2018-12-19T03:25:18.277Z,2.10
2018-12-19T03:27:45.760Z,1.97
2018-12-19T03:30:13.232Z,1.80
2018-12-19T03:32:40.705Z,2.10
2018-12-19T03:35:08.162Z,2.00
2018-12-19T03:37:35.631Z,2.00
2018-12-19T03:40:03.483Z,1.97
2018-12-19T03:42:30.979Z,1.80
2018-12-19T03:44:58.459Z,2.70
2018-12-19T03:47:25.927Z,1.90
2018-12-19T03:49:53.491Z,2.03
2018-12-19T03:52:20.952Z,1.67
2018-12-19T03:54:48.428Z,1.83
2018-12-19T03:57:15.901Z,1.93
2018-12-19T03:59:43.393Z,1.67
2018-12-19T04:02:10.871Z,2.30
2018-12-19T04:04:38.344Z,2.10
2018-12-19T04:07:05.838Z,2.07
2018-12-19T04:09:33.320Z,1.93
2018-12-19T04:12:00.771Z,1.70
2018-12-19T04:14:28.247Z,2.10
2018-12-19T04:16:55.717Z,2.10
2018-12-19T04:19:23.200Z,1.67
2018-12-19T04:21:50.661Z,1.73
2018-12-19T04:24:18.151Z,2.03
2018-12-19T04:26:45.616Z,2.20
2018-12-19T04:29:13.093Z,2.23
2018-12-19T04:31:40.580Z,2.00
2018-12-19T04:34:08.133Z,1.80
2018-12-19T04:36:35.608Z,2.23
2018-12-19T04:39:05.324Z,2.40
2018-12-19T04:41:32.827Z,2.13
2018-12-19T04:44:00.295Z,2.10
2018-12-19T04:46:27.819Z,2.73
2018-12-19T04:48:55.294Z,2.53
2018-12-19T04:51:22.775Z,2.20
2018-12-19T04:53:50.257Z,2.07
2018-12-19T04:56:17.744Z,2.00
2018-12-19T04:58:45.224Z,2.17
2018-12-19T05:01:12.731Z,1.97
2018-12-19T05:03:40.187Z,1.73
2018-12-19T05:06:07.648Z,1.97
2018-12-19T05:08:35.125Z,2.10
2018-12-19T05:11:02.595Z,1.80
2018-12-19T05:13:30.069Z,1.93
2018-12-19T05:15:57.533Z,1.70
2018-12-19T05:18:25.003Z,1.67
2018-12-19T05:20:52.456Z,1.60
2018-12-19T05:23:19.950Z,1.70
2018-12-19T05:25:47.408Z,1.60
2018-12-19T05:28:14.879Z,1.83
2018-12-19T05:30:42.344Z,2.33
2018-12-19T05:33:09.810Z,2.00
2018-12-19T05:35:37.280Z,2.10
2018-12-19T05:38:04.761Z,1.80
2018-12-19T05:40:32.223Z,2.10
2018-12-19T05:42:59.687Z,2.10
2018-12-19T05:45:27.148Z,1.70
2018-12-19T05:47:54.628Z,1.70
2018-12-19T05:50:22.465Z,1.60
2018-12-19T05:52:49.936Z,1.63
2018-12-19T05:55:17.397Z,1.80
2018-12-19T05:57:45.362Z,1.50
2018-12-19T06:00:13.012Z,1.70
2018-12-19T06:02:40.484Z,1.80
2018-12-19T06:05:08.036Z,1.67
2018-12-19T06:07:35.510Z,2.17
2018-12-19T06:10:03.067Z,2.23
2018-12-19T06:12:30.540Z,2.33
2018-12-19T06:14:58.017Z,2.43
2018-12-19T06:17:25.481Z,2.33
2018-12-19T06:19:52.961Z,2.37
2018-12-19T06:22:20.419Z,4.67
2018-12-19T06:24:47.916Z,2.73
2018-12-19T06:27:15.387Z,2.73
2018-12-19T06:29:42.871Z,2.73
2018-12-19T06:32:10.335Z,2.77
2018-12-19T06:34:37.931Z,1.80
2018-12-19T06:37:26.102Z,1.80
2018-12-19T06:39:53.598Z,2.20
2018-12-19T06:42:21.051Z,2.37
2018-12-19T06:44:48.536Z,1.67
2018-12-19T06:47:15.987Z,1.50
2018-12-19T06:49:43.571Z,1.20
2018-12-19T06:52:11.153Z,1.20
2018-12-19T06:54:38.628Z,1.17
2018-12-19T06:57:06.087Z,1.37
2018-12-19T06:59:33.579Z,1.13
2018-12-19T07:02:01.041Z,1.17
2018-12-19T07:04:28.512Z,1.20
2018-12-19T07:06:55.974Z,1.30
2018-12-19T07:09:23.650Z,1.17
2018-12-19T07:11:51.117Z,1.10
2018-12-19T07:14:18.617Z,1.27
2018-12-19T07:16:46.077Z,1.50
2018-12-19T07:19:13.540Z,1.30
2018-12-19T07:21:41.020Z,1.40
2018-12-19T07:24:08.483Z,1.50
2018-12-19T07:26:35.995Z,1.53
2018-12-19T07:29:03.467Z,1.53
2018-12-19T07:31:30.947Z,1.63
2018-12-19T07:33:58.434Z,1.60
2018-12-19T07:36:25.905Z,1.50
2018-12-19T07:38:53.364Z,1.60
2018-12-19T07:41:20.894Z,1.57
2018-12-19T07:43:48.415Z,1.80
2018-12-19T07:46:19.789Z,1.80
2018-12-19T07:48:45.437Z,1.60
2018-12-19T07:51:12.902Z,1.57
2018-12-19T07:53:40.378Z,1.83
2018-12-19T07:56:08.039Z,1.57
2018-12-19T07:58:35.604Z,1.60
2018-12-19T08:01:03.075Z,1.73
2018-12-19T08:03:30.543Z,1.60
2018-12-19T08:05:58.021Z,1.70
2018-12-19T08:08:25.484Z,2.20
2018-12-19T08:10:52.971Z,2.63
2018-12-19T08:13:20.431Z,2.40
2018-12-19T08:15:47.925Z,2.03
2018-12-19T08:18:15.393Z,1.90
2018-12-19T08:20:42.854Z,1.70
2018-12-19T08:23:10.329Z,1.70
2018-12-19T08:25:37.823Z,2.00
2018-12-19T08:28:05.299Z,1.20
2018-12-19T08:30:32.775Z,1.50
2018-12-19T08:33:00.243Z,1.57
2018-12-19T08:35:27.698Z,1.20
2018-12-19T08:37:55.189Z,1.17
2018-12-19T08:40:22.648Z,1.63
2018-12-19T08:42:50.129Z,1.20
2018-12-19T08:45:17.759Z,1.60
2018-12-19T08:47:45.236Z,1.40
2018-12-19T08:50:12.734Z,1.30
2018-12-19T08:52:40.235Z,1.90
2018-12-19T08:55:07.704Z,2.00
2018-12-19T08:57:35.189Z,3.30
2018-12-19T09:00:02.934Z,1.47
2018-12-19T09:02:30.403Z,1.20
2018-12-19T09:04:57.875Z,1.50
2018-12-19T09:07:25.363Z,2.53
2018-12-19T09:09:52.829Z,1.10
2018-12-19T09:12:20.299Z,1.60
2018-12-19T09:14:47.775Z,1.53
2018-12-19T09:17:15.309Z,1.40
2018-12-19T09:19:42.975Z,1.40
2018-12-19T09:22:10.737Z,1.30
2018-12-19T09:24:38.196Z,1.43
2018-12-19T09:27:05.689Z,1.17
2018-12-19T09:29:33.169Z,1.20
2018-12-19T09:32:00.616Z,1.33
2018-12-19T09:34:28.101Z,1.20
2018-12-19T09:36:55.568Z,1.00
2018-12-19T09:39:23.043Z,2.97
2018-12-19T09:41:50.604Z,3.30
2018-12-19T09:44:18.068Z,2.00
2018-12-19T09:46:45.540Z,1.00
2018-12-19T09:49:14.092Z,1.40
2018-12-19T09:51:41.608Z,0.90
2018-12-19T09:54:09.088Z,1.57
2018-12-19T09:56:36.581Z,0.93
2018-12-19T09:59:04.062Z,1.20
2018-12-19T10:01:31.526Z,0.80
2018-12-19T10:03:59.006Z,1.10
2018-12-19T10:06:26.467Z,1.30
2018-12-19T10:08:53.964Z,1.33
2018-12-19T10:11:21.415Z,1.10
2018-12-19T10:13:48.896Z,1.23
2018-12-19T10:16:16.388Z,1.30
2018-12-19T10:18:44.457Z,1.27
2018-12-19T10:21:11.915Z,1.40
2018-12-19T10:23:39.381Z,1.60
2018-12-19T10:26:13.077Z,1.03
2018-12-19T10:28:40.536Z,1.13
2018-12-19T10:31:08.015Z,1.23
2018-12-19T10:33:35.500Z,1.03
2018-12-19T10:36:03.063Z,1.10
2018-12-19T10:38:30.579Z,1.30
2018-12-19T10:40:58.075Z,1.40
2018-12-19T10:43:25.528Z,0.90
2018-12-19T10:45:53.036Z,1.17
2018-12-19T10:48:20.536Z,1.10
2018-12-19T10:50:48.079Z,1.27
2018-12-19T10:53:15.561Z,1.30
2018-12-19T10:55:43.038Z,0.77
2018-12-19T10:58:10.536Z,1.70
2018-12-19T11:00:43.713Z,1.23
2018-12-19T11:03:11.179Z,1.30
2018-12-19T11:05:38.672Z,1.07
2018-12-19T11:08:06.165Z,1.23
2018-12-19T11:10:33.627Z,0.90
2018-12-19T11:13:01.136Z,1.00
2018-12-19T11:15:28.589Z,1.40
2018-12-19T11:17:56.076Z,1.20
2018-12-19T11:20:23.566Z,1.30
2018-12-19T11:22:51.045Z,1.10
2018-12-19T11:25:18.504Z,1.23
2018-12-19T11:27:45.987Z,1.30
2018-12-19T11:30:13.444Z,1.40
2018-12-19T11:32:40.931Z,1.10
2018-12-19T11:35:08.384Z,1.43
2018-12-19T11:37:35.861Z,1.40
2018-12-19T11:40:05.175Z,1.80
2018-12-19T11:42:32.643Z,1.67
2018-12-19T11:45:00.117Z,1.50
2018-12-19T11:47:27.595Z,1.40
2018-12-19T11:49:55.141Z,1.20
2018-12-19T11:52:22.606Z,1.67
2018-12-19T11:54:50.081Z,1.30
2018-12-19T11:57:17.621Z,1.30
2018-12-19T11:59:45.105Z,1.27
2018-12-19T12:02:12.584Z,1.10
2018-12-19T12:04:40.055Z,1.10
2018-12-19T12:07:07.528Z,1.27
2018-12-19T12:09:35.013Z,1.47
2018-12-19T12:12:02.470Z,1.37
2018-12-19T12:14:29.938Z,1.00
2018-12-19T12:16:57.399Z,1.13
2018-12-19T12:19:24.875Z,1.20
2018-12-19T12:21:52.346Z,1.13
2018-12-19T12:24:19.820Z,1.23
2018-12-19T12:26:47.283Z,1.60
2018-12-19T12:29:14.759Z,1.40
2018-12-19T12:31:42.240Z,1.30
2018-12-19T12:34:09.711Z,1.20
2018-12-19T12:36:37.175Z,1.00
2018-12-19T12:39:06.009Z,0.90
2018-12-19T12:41:33.485Z,1.30
2018-12-19T12:44:00.966Z,1.23
2018-12-19T12:46:28.439Z,1.63
2018-12-19T12:48:55.936Z,1.63
2018-12-19T12:51:23.405Z,1.37
2018-12-19T12:53:50.888Z,1.77
2018-12-19T12:56:18.356Z,1.50
2018-12-19T12:58:45.836Z,1.80
2018-12-19T13:01:13.315Z,1.40
2018-12-19T13:03:40.914Z,1.17
2018-12-19T13:06:08.384Z,0.93
2018-12-19T13:08:35.848Z,0.83
2018-12-19T13:11:03.589Z,1.10
2018-12-19T13:13:31.047Z,1.10
2018-12-19T13:15:58.521Z,0.93
2018-12-19T13:18:25.979Z,1.10
2018-12-19T13:20:53.484Z,1.10
2018-12-19T13:23:20.952Z,1.27
2018-12-19T13:25:48.432Z,1.30
2018-12-19T13:28:15.979Z,1.20
2018-12-19T13:30:43.447Z,1.33
2018-12-19T13:33:10.919Z,1.33
2018-12-19T13:35:38.397Z,1.37
2018-12-19T13:38:05.860Z,1.47
2018-12-19T13:40:33.368Z,1.70
2018-12-19T13:43:00.832Z,1.70
2018-12-19T13:45:28.302Z,1.30
2018-12-19T13:47:55.758Z,1.50
2018-12-19T13:50:23.242Z,1.20
2018-12-19T13:52:50.703Z,1.37
2018-12-19T13:55:18.187Z,1.07
2018-12-19T13:57:45.649Z,1.40
2018-12-19T14:00:13.107Z,1.30
2018-12-19T14:02:40.601Z,1.33
2018-12-19T14:05:08.208Z,1.53
2018-12-19T14:07:35.683Z,1.60
2018-12-19T14:10:03.431Z,1.40
2018-12-19T14:12:30.909Z,1.40
2018-12-19T14:14:58.371Z,1.50
2018-12-19T14:17:25.848Z,1.53
2018-12-19T14:19:53.308Z,1.00
2018-12-19T14:22:21.668Z,1.30
2018-12-19T14:24:49.143Z,1.63
2018-12-19T14:27:16.625Z,1.37
2018-12-19T14:29:44.087Z,1.20
2018-12-19T14:32:11.567Z,1.23
2018-12-19T14:34:39.051Z,1.10
2018-12-19T14:37:06.528Z,1.30
2018-12-19T14:39:33.998Z,1.17
2018-12-19T14:42:01.490Z,1.40
2018-12-19T14:44:28.948Z,1.00
2018-12-19T14:49:30.281Z,1.47
2018-12-19T14:51:57.843Z,1.10
2018-12-19T14:54:25.299Z,1.40
2018-12-19T14:56:52.781Z,1.50
2018-12-19T14:59:20.266Z,1.30
2018-12-19T15:01:47.798Z,1.00
2018-12-19T15:04:15.298Z,1.30
2018-12-19T15:06:42.791Z,1.10
2018-12-19T15:09:10.336Z,1.70
2018-12-19T15:11:37.795Z,1.10
2018-12-19T15:14:05.271Z,1.40
2018-12-19T15:16:32.816Z,1.33
2018-12-19T15:19:00.300Z,1.33
2018-12-19T15:21:27.755Z,1.00
2018-12-19T15:23:55.240Z,2.13
2018-12-19T15:26:22.708Z,1.90
2018-12-19T15:28:50.193Z,1.53
2018-12-19T15:31:17.648Z,1.90
2018-12-19T15:33:45.115Z,1.70
2018-12-19T15:36:12.847Z,1.77
2018-12-19T15:38:40.322Z,1.60
2018-12-19T15:41:07.793Z,1.70
2018-12-19T15:43:35.283Z,1.70
2018-12-19T15:46:02.740Z,1.10
2018-12-19T15:48:30.215Z,1.43
2018-12-19T15:50:57.689Z,1.70
2018-12-19T15:53:25.255Z,1.30
2018-12-19T15:55:52.758Z,1.33
2018-12-19T15:58:20.246Z,1.60
2018-12-19T16:00:47.732Z,2.20
2018-12-19T16:03:15.215Z,1.80
2018-12-19T16:05:42.717Z,2.30
2018-12-19T16:08:10.211Z,2.23
2018-12-19T16:10:37.680Z,2.20
2018-12-19T16:13:05.148Z,3.23
2018-12-19T16:15:32.622Z,2.03
2018-12-19T16:18:00.104Z,1.83
2018-12-19T16:20:27.568Z,1.40
2018-12-19T16:22:55.031Z,1.80
2018-12-19T16:25:22.840Z,1.80
2018-12-19T16:27:50.300Z,1.90
2018-12-19T16:30:17.770Z,1.90
2018-12-19T16:32:45.241Z,3.10
2018-12-19T16:35:12.711Z,5.23
2018-12-19T16:37:40.211Z,5.93
2018-12-19T16:40:07.846Z,5.80
2018-12-19T16:42:35.324Z,3.33
2018-12-19T16:45:02.976Z,3.10
2018-12-19T16:47:30.437Z,2.23
2018-12-19T16:49:57.906Z,2.40
2018-12-19T16:52:25.368Z,2.77
2018-12-19T16:54:52.852Z,2.70
2018-12-19T16:57:20.313Z,2.50
2018-12-19T16:59:47.796Z,2.90
2018-12-19T17:02:15.260Z,2.97
2018-12-19T17:04:42.725Z,2.97
2018-12-19T17:07:10.195Z,3.47
2018-12-19T17:09:37.663Z,4.37
2018-12-19T17:12:05.151Z,5.23
2018-12-19T17:14:32.611Z,5.17
2018-12-19T17:17:00.095Z,3.90
2018-12-19T17:19:27.638Z,2.20
2018-12-19T17:21:55.154Z,2.37
2018-12-19T17:24:24.607Z,2.13
2018-12-19T17:26:52.093Z,2.20
2018-12-19T17:29:19.543Z,2.10
2018-12-19T17:31:47.028Z,2.30
2018-12-19T17:34:14.497Z,1.80
2018-12-19T17:36:41.966Z,2.73
2018-12-19T17:39:09.423Z,1.63
2018-12-19T17:41:36.900Z,1.70
2018-12-19T17:44:04.360Z,2.20
2018-12-19T17:46:31.852Z,2.17
2018-12-19T17:48:59.325Z,2.60
2018-12-19T17:51:26.795Z,2.60
2018-12-19T17:53:54.261Z,2.90
2018-12-19T17:56:21.735Z,2.90
2018-12-19T17:58:49.225Z,2.77
2018-12-19T18:01:16.698Z,3.20
2018-12-19T18:03:44.172Z,3.10
2018-12-19T18:06:11.639Z,3.60
2018-12-19T18:08:39.117Z,3.10
2018-12-19T18:11:06.571Z,3.37
2018-12-19T18:13:34.049Z,3.90
2018-12-19T18:16:01.516Z,3.63
2018-12-19T18:18:28.995Z,2.87
2018-12-19T18:20:56.463Z,3.27
2018-12-19T18:23:23.943Z,3.40
2018-12-19T18:25:51.409Z,3.37
2018-12-19T18:28:18.892Z,3.40
2018-12-19T18:30:46.348Z,2.80
2018-12-19T18:33:13.823Z,2.93
2018-12-19T18:35:41.592Z,3.20
2018-12-19T18:38:09.075Z,3.53
2018-12-19T18:40:36.530Z,4.20
2018-12-19T18:43:04.016Z,3.87
2018-12-19T18:45:31.555Z,3.40
2018-12-19T18:47:59.035Z,2.97
2018-12-19T18:50:26.491Z,2.80
2018-12-19T18:52:53.967Z,3.33
2018-12-19T18:55:21.447Z,3.63
2018-12-19T18:57:48.916Z,3.70
2018-12-19T19:00:19.387Z,3.23
2018-12-19T19:02:46.950Z,3.13
2018-12-19T19:05:14.533Z,2.60
2018-12-19T19:07:42.075Z,2.80
2018-12-19T19:10:09.705Z,3.03
2018-12-19T19:12:37.175Z,4.07
2018-12-19T19:15:05.002Z,4.10
2018-12-19T19:17:32.478Z,4.40
2018-12-19T19:19:59.955Z,5.10
2018-12-19T19:22:27.429Z,4.47
2018-12-19T19:24:54.912Z,4.67
2018-12-19T19:27:22.380Z,3.80
2018-12-19T19:29:49.861Z,4.00
2018-12-19T19:32:18.783Z,4.13
2018-12-19T19:34:46.454Z,3.47
2018-12-19T19:37:14.020Z,4.03
2018-12-19T19:39:41.673Z,4.27
2018-12-19T19:42:09.134Z,5.17
2018-12-19T19:44:36.596Z,4.43
2018-12-19T19:47:04.075Z,4.40
2018-12-19T19:49:31.541Z,3.80
2018-12-19T19:51:59.015Z,4.23
2018-12-19T19:54:26.485Z,4.63
2018-12-19T19:56:54.026Z,5.13
2018-12-19T19:59:21.554Z,4.77
2018-12-19T20:01:49.032Z,3.90
2018-12-19T20:04:16.499Z,3.93
2018-12-19T20:06:43.976Z,4.20
2018-12-19T20:09:11.446Z,4.23
2018-12-19T20:11:38.926Z,3.80
2018-12-19T20:14:06.473Z,3.97
2018-12-19T20:16:35.919Z,3.40
2018-12-19T20:19:03.388Z,3.90
2018-12-19T20:21:30.864Z,3.47
2018-12-19T20:23:58.337Z,3.53
2018-12-19T20:26:25.812Z,3.93
2018-12-19T20:28:53.333Z,3.90
2018-12-19T20:31:20.813Z,3.53
2018-12-19T20:33:48.305Z,3.93
2018-12-19T20:36:15.907Z,4.13
2018-12-19T20:38:43.397Z,4.23
2018-12-19T20:41:10.905Z,4.47
2018-12-19T20:43:40.117Z,4.17
2018-12-19T20:46:07.927Z,4.33
2018-12-19T20:48:35.609Z,3.70
2018-12-19T20:51:03.102Z,4.47
2018-12-19T20:53:30.598Z,4.37
2018-12-19T20:56:03.754Z,3.73
2018-12-19T20:58:27.712Z,4.80
2018-12-19T21:00:55.326Z,4.10
2018-12-19T21:03:22.874Z,4.33
2018-12-19T21:05:50.374Z,4.20
2018-12-19T21:08:17.885Z,5.00
2018-12-19T21:10:45.591Z,4.53
2018-12-19T21:13:13.068Z,4.17
2018-12-19T21:15:40.611Z,4.10
2018-12-19T21:18:13.591Z,4.40
2018-12-19T21:20:41.064Z,4.33
2018-12-19T21:23:08.548Z,4.80
2018-12-19T21:25:36.017Z,4.53
2018-12-19T21:28:03.576Z,5.10
2018-12-19T21:30:31.048Z,4.80
2018-12-19T21:32:58.507Z,4.90
2018-12-19T21:35:26.000Z,5.50
2018-12-19T21:37:53.468Z,5.13
2018-12-19T21:40:20.995Z,5.03
2018-12-19T21:42:48.651Z,5.20
2018-12-19T21:45:16.253Z,5.23
2018-12-19T21:47:43.812Z,5.10
2018-12-19T21:50:11.328Z,5.10
2018-12-19T21:52:38.893Z,8.33
2018-12-19T21:55:06.476Z,6.23
2018-12-19T21:57:33.959Z,7.10
2018-12-19T22:00:01.555Z,7.13
2018-12-19T22:02:29.031Z,5.77
2018-12-19T22:04:56.755Z,5.47
2018-12-19T22:07:24.362Z,5.00
2018-12-19T22:09:51.892Z,6.17
2018-12-19T22:12:19.362Z,6.00
2018-12-19T22:14:47.225Z,5.97
2018-12-19T22:17:20.251Z,6.77
2018-12-19T22:19:47.767Z,6.47
2018-12-19T22:22:15.358Z,5.40
2018-12-19T22:24:42.840Z,6.20
2018-12-19T22:27:10.316Z,5.07
2018-12-19T22:29:37.915Z,5.60
2018-12-19T22:32:05.419Z,4.97
2018-12-19T22:34:33.111Z,4.23
2018-12-19T22:37:00.629Z,3.97
2018-12-19T22:39:28.228Z,3.27
2018-12-19T22:41:55.815Z,3.20
2018-12-19T22:44:23.301Z,2.73
2018-12-19T22:46:50.891Z,3.10
2018-12-19T22:49:18.569Z,2.50
2018-12-19T22:51:46.197Z,2.60
2018-12-19T22:54:13.785Z,2.73
2018-12-19T22:56:41.364Z,2.67
2018-12-19T22:59:09.127Z,3.27
2018-12-19T23:01:42.608Z,3.67
2018-12-19T23:04:10.178Z,3.17
2018-12-19T23:06:37.832Z,2.90
2018-12-19T23:09:06.251Z,2.57
2018-12-19T23:11:33.820Z,2.70
2018-12-19T23:14:01.336Z,3.10
2018-12-19T23:16:28.807Z,2.97
2018-12-19T23:18:56.308Z,2.97
2018-12-19T23:21:24.066Z,2.73
2018-12-19T23:23:51.531Z,3.20
2018-12-19T23:26:19.333Z,2.90
2018-12-19T23:28:46.966Z,2.67
2018-12-19T23:31:14.490Z,2.60
2018-12-19T23:33:42.089Z,2.70
2018-12-19T23:36:09.609Z,2.37
2018-12-19T23:38:37.460Z,2.60
2018-12-19T23:41:05.122Z,2.27
2018-12-19T23:43:32.702Z,2.30
2018-12-19T23:46:00.381Z,2.40
2018-12-19T23:48:28.044Z,2.33
2018-12-19T23:50:55.594Z,2.07
2018-12-19T23:53:23.129Z,1.90
2018-12-19T23:55:51.017Z,2.03
2018-12-19T23:58:18.595Z,2.30
